sensor_id;sensor_type;location;lat;lon;timestamp;P1;durP1;ratioP1;P2;durP2;ratioP2
33367;SDS011;19724;51.114;13.906;2023-04-15T00:02:15;14.38;;;7.30;;
33367;SDS011;19724;51.114;13.906;2023-04-15T00:04:42;15.63;;;8.15;;
33367;SDS011;19724;51.114;13.906;2023-04-15T00:07:08;17.50;;;7.18;;
33367;SDS011;19724;51.114;13.906;2023-04-15T00:09:34;12.50;;;6.28;;
33367;SDS011;19724;51.114;13.906;2023-04-15T00:12:00;11.18;;;6.22;;
33367;SDS011;19724;51.114;13.906;2023-04-15T00:14:26;14.60;;;6.80;;
33367;SDS011;19724;51.114;13.906;2023-04-15T00:16:52;11.07;;;6.20;;
33367;SDS011;19724;51.114;13.906;2023-04-15T00:19:20;10.50;;;6.03;;
33367;SDS011;19724;51.114;13.906;2023-04-15T00:21:45;9.90;;;5.65;;
33367;SDS011;19724;51.114;13.906;2023-04-15T00:24:11;9.23;;;5.10;;
33367;SDS011;19724;51.114;13.906;2023-04-15T00:26:37;13.48;;;6.63;;
33367;SDS011;19724;51.114;13.906;2023-04-15T00:29:03;11.75;;;5.55;;
33367;SDS011;19724;51.114;13.906;2023-04-15T00:31:29;20.55;;;7.55;;
33367;SDS011;19724;51.114;13.906;2023-04-15T00:33:55;16.63;;;7.55;;
33367;SDS011;19724;51.114;13.906;2023-04-15T00:36:21;13.05;;;6.93;;
33367;SDS011;19724;51.114;13.906;2023-04-15T00:38:47;11.50;;;6.10;;
33367;SDS011;19724;51.114;13.906;2023-04-15T00:41:12;13.15;;;6.40;;
33367;SDS011;19724;51.114;13.906;2023-04-15T00:43:38;13.93;;;7.03;;
33367;SDS011;19724;51.114;13.906;2023-04-15T00:46:05;14.18;;;6.82;;
33367;SDS011;19724;51.114;13.906;2023-04-15T00:48:31;11.05;;;5.50;;
33367;SDS011;19724;51.114;13.906;2023-04-15T00:50:57;11.32;;;5.90;;
33367;SDS011;19724;51.114;13.906;2023-04-15T00:53:22;17.10;;;7.50;;
33367;SDS011;19724;51.114;13.906;2023-04-15T00:55:48;16.90;;;7.75;;
33367;SDS011;19724;51.114;13.906;2023-04-15T00:58:14;12.40;;;6.13;;
33367;SDS011;19724;51.114;13.906;2023-04-15T01:00:40;20.42;;;8.00;;
33367;SDS011;19724;51.114;13.906;2023-04-15T01:03:08;11.77;;;6.25;;
33367;SDS011;19724;51.114;13.906;2023-04-15T01:05:34;12.50;;;7.22;;
33367;SDS011;19724;51.114;13.906;2023-04-15T01:08:00;13.82;;;7.10;;
33367;SDS011;19724;51.114;13.906;2023-04-15T01:10:26;13.25;;;6.45;;
33367;SDS011;19724;51.114;13.906;2023-04-15T01:12:52;15.18;;;7.18;;
33367;SDS011;19724;51.114;13.906;2023-04-15T01:15:18;15.45;;;6.78;;
33367;SDS011;19724;51.114;13.906;2023-04-15T01:17:44;16.33;;;7.38;;
33367;SDS011;19724;51.114;13.906;2023-04-15T01:20:10;18.85;;;8.23;;
33367;SDS011;19724;51.114;13.906;2023-04-15T01:22:36;13.80;;;7.78;;
33367;SDS011;19724;51.114;13.906;2023-04-15T01:25:07;16.33;;;7.72;;
33367;SDS011;19724;51.114;13.906;2023-04-15T01:27:34;16.13;;;7.60;;
33367;SDS011;19724;51.114;13.906;2023-04-15T01:30:04;18.52;;;8.23;;
33367;SDS011;19724;51.114;13.906;2023-04-15T01:32:30;20.95;;;9.88;;
33367;SDS011;19724;51.114;13.906;2023-04-15T01:34:55;18.05;;;8.45;;
33367;SDS011;19724;51.114;13.906;2023-04-15T01:37:21;15.73;;;7.05;;
33367;SDS011;19724;51.114;13.906;2023-04-15T01:39:46;15.77;;;8.32;;
33367;SDS011;19724;51.114;13.906;2023-04-15T01:42:12;15.45;;;7.30;;
33367;SDS011;19724;51.114;13.906;2023-04-15T01:44:37;21.75;;;8.70;;
33367;SDS011;19724;51.114;13.906;2023-04-15T01:47:03;15.75;;;8.32;;
33367;SDS011;19724;51.114;13.906;2023-04-15T01:49:29;14.27;;;6.90;;
33367;SDS011;19724;51.114;13.906;2023-04-15T01:51:55;12.95;;;7.10;;
33367;SDS011;19724;51.114;13.906;2023-04-15T01:54:20;13.02;;;7.10;;
33367;SDS011;19724;51.114;13.906;2023-04-15T01:56:46;12.50;;;6.32;;
33367;SDS011;19724;51.114;13.906;2023-04-15T01:59:11;12.30;;;7.47;;
33367;SDS011;19724;51.114;13.906;2023-04-15T02:01:37;14.23;;;7.60;;
33367;SDS011;19724;51.114;13.906;2023-04-15T02:04:03;19.83;;;8.23;;
33367;SDS011;19724;51.114;13.906;2023-04-15T02:06:29;14.60;;;8.27;;
33367;SDS011;19724;51.114;13.906;2023-04-15T02:08:54;19.38;;;8.65;;
33367;SDS011;19724;51.114;13.906;2023-04-15T02:11:20;11.77;;;7.13;;
33367;SDS011;19724;51.114;13.906;2023-04-15T02:13:46;14.48;;;7.15;;
33367;SDS011;19724;51.114;13.906;2023-04-15T02:16:16;13.35;;;7.55;;
33367;SDS011;19724;51.114;13.906;2023-04-15T02:18:43;20.05;;;8.65;;
33367;SDS011;19724;51.114;13.906;2023-04-15T02:21:09;15.38;;;8.32;;
33367;SDS011;19724;51.114;13.906;2023-04-15T02:23:34;24.48;;;9.10;;
33367;SDS011;19724;51.114;13.906;2023-04-15T02:26:00;20.65;;;9.90;;
33367;SDS011;19724;51.114;13.906;2023-04-15T02:28:25;18.67;;;8.77;;
33367;SDS011;19724;51.114;13.906;2023-04-15T02:30:51;15.57;;;8.32;;
33367;SDS011;19724;51.114;13.906;2023-04-15T02:33:18;14.75;;;8.75;;
33367;SDS011;19724;51.114;13.906;2023-04-15T02:35:44;17.27;;;9.00;;
33367;SDS011;19724;51.114;13.906;2023-04-15T02:38:10;25.40;;;10.00;;
33367;SDS011;19724;51.114;13.906;2023-04-15T02:40:36;20.40;;;8.60;;
33367;SDS011;19724;51.114;13.906;2023-04-15T02:43:01;18.35;;;8.68;;
33367;SDS011;19724;51.114;13.906;2023-04-15T02:45:27;21.40;;;9.30;;
33367;SDS011;19724;51.114;13.906;2023-04-15T02:47:52;15.13;;;8.68;;
33367;SDS011;19724;51.114;13.906;2023-04-15T02:50:18;19.27;;;9.13;;
33367;SDS011;19724;51.114;13.906;2023-04-15T02:52:44;31.05;;;11.45;;
33367;SDS011;19724;51.114;13.906;2023-04-15T02:55:10;23.45;;;10.32;;
33367;SDS011;19724;51.114;13.906;2023-04-15T02:57:36;19.35;;;9.80;;
33367;SDS011;19724;51.114;13.906;2023-04-15T03:00:03;20.60;;;8.93;;
33367;SDS011;19724;51.114;13.906;2023-04-15T03:02:33;20.45;;;9.27;;
33367;SDS011;19724;51.114;13.906;2023-04-15T03:04:59;22.90;;;10.98;;
33367;SDS011;19724;51.114;13.906;2023-04-15T03:07:25;19.13;;;9.48;;
33367;SDS011;19724;51.114;13.906;2023-04-15T03:09:50;30.00;;;10.45;;
33367;SDS011;19724;51.114;13.906;2023-04-15T03:12:16;33.28;;;12.18;;
33367;SDS011;19724;51.114;13.906;2023-04-15T03:14:42;22.52;;;10.82;;
33367;SDS011;19724;51.114;13.906;2023-04-15T03:17:07;32.15;;;11.68;;
33367;SDS011;19724;51.114;13.906;2023-04-15T03:19:32;25.67;;;11.05;;
33367;SDS011;19724;51.114;13.906;2023-04-15T03:21:58;29.38;;;13.60;;
33367;SDS011;19724;51.114;13.906;2023-04-15T03:24:24;28.52;;;12.93;;
33367;SDS011;19724;51.114;13.906;2023-04-15T03:26:51;35.67;;;14.95;;
33367;SDS011;19724;51.114;13.906;2023-04-15T03:29:16;26.95;;;12.30;;
33367;SDS011;19724;51.114;13.906;2023-04-15T03:31:41;38.55;;;14.48;;
33367;SDS011;19724;51.114;13.906;2023-04-15T03:34:07;29.10;;;13.02;;
33367;SDS011;19724;51.114;13.906;2023-04-15T03:36:32;30.58;;;13.63;;
33367;SDS011;19724;51.114;13.906;2023-04-15T03:38:58;42.10;;;15.75;;
33367;SDS011;19724;51.114;13.906;2023-04-15T03:41:23;34.05;;;14.88;;
33367;SDS011;19724;51.114;13.906;2023-04-15T03:43:49;32.35;;;14.60;;
33367;SDS011;19724;51.114;13.906;2023-04-15T03:46:16;33.42;;;14.85;;
33367;SDS011;19724;51.114;13.906;2023-04-15T03:48:42;45.20;;;15.45;;
33367;SDS011;19724;51.114;13.906;2023-04-15T03:51:07;49.95;;;17.33;;
33367;SDS011;19724;51.114;13.906;2023-04-15T03:53:33;35.10;;;15.60;;
33367;SDS011;19724;51.114;13.906;2023-04-15T03:55:58;68.28;;;18.08;;
33367;SDS011;19724;51.114;13.906;2023-04-15T03:58:24;42.63;;;17.33;;
33367;SDS011;19724;51.114;13.906;2023-04-15T04:00:49;56.70;;;20.85;;
33367;SDS011;19724;51.114;13.906;2023-04-15T04:03:15;65.65;;;22.05;;
33367;SDS011;19724;51.114;13.906;2023-04-15T04:05:41;86.88;;;23.02;;
33367;SDS011;19724;51.114;13.906;2023-04-15T04:08:08;54.80;;;15.77;;
33367;SDS011;19724;51.114;13.906;2023-04-15T04:10:33;50.13;;;19.15;;
33367;SDS011;19724;51.114;13.906;2023-04-15T04:12:59;78.63;;;20.85;;
33367;SDS011;19724;51.114;13.906;2023-04-15T04:15:25;55.80;;;17.77;;
33367;SDS011;19724;51.114;13.906;2023-04-15T04:17:51;53.85;;;18.35;;
33367;SDS011;19724;51.114;13.906;2023-04-15T04:20:16;72.93;;;21.60;;
33367;SDS011;19724;51.114;13.906;2023-04-15T04:22:42;52.00;;;20.10;;
33367;SDS011;19724;51.114;13.906;2023-04-15T04:25:07;57.03;;;20.35;;
33367;SDS011;19724;51.114;13.906;2023-04-15T04:27:36;64.82;;;22.67;;
33367;SDS011;19724;51.114;13.906;2023-04-15T04:30:02;82.80;;;20.30;;
33367;SDS011;19724;51.114;13.906;2023-04-15T04:32:28;94.85;;;21.83;;
33367;SDS011;19724;51.114;13.906;2023-04-15T04:34:54;52.63;;;19.80;;
33367;SDS011;19724;51.114;13.906;2023-04-15T04:37:19;66.53;;;16.90;;
33367;SDS011;19724;51.114;13.906;2023-04-15T04:39:45;72.05;;;20.35;;
33367;SDS011;19724;51.114;13.906;2023-04-15T04:42:10;59.30;;;20.58;;
33367;SDS011;19724;51.114;13.906;2023-04-15T04:44:36;68.45;;;18.90;;
33367;SDS011;19724;51.114;13.906;2023-04-15T04:47:01;45.70;;;15.27;;
33367;SDS011;19724;51.114;13.906;2023-04-15T04:49:27;49.30;;;16.35;;
33367;SDS011;19724;51.114;13.906;2023-04-15T04:51:52;30.15;;;12.90;;
33367;SDS011;19724;51.114;13.906;2023-04-15T04:54:18;44.33;;;15.30;;
33367;SDS011;19724;51.114;13.906;2023-04-15T04:56:44;44.45;;;13.75;;
33367;SDS011;19724;51.114;13.906;2023-04-15T04:59:09;40.53;;;15.30;;
33367;SDS011;19724;51.114;13.906;2023-04-15T05:01:34;43.03;;;15.85;;
33367;SDS011;19724;51.114;13.906;2023-04-15T05:04:00;50.60;;;18.10;;
33367;SDS011;19724;51.114;13.906;2023-04-15T05:06:25;36.15;;;13.75;;
33367;SDS011;19724;51.114;13.906;2023-04-15T05:08:54;39.88;;;14.88;;
33367;SDS011;19724;51.114;13.906;2023-04-15T05:11:20;61.95;;;16.45;;
33367;SDS011;19724;51.114;13.906;2023-04-15T05:13:46;41.45;;;14.43;;
33367;SDS011;19724;51.114;13.906;2023-04-15T05:16:11;39.15;;;14.25;;
33367;SDS011;19724;51.114;13.906;2023-04-15T05:18:37;39.50;;;13.52;;
33367;SDS011;19724;51.114;13.906;2023-04-15T05:21:02;28.77;;;11.48;;
33367;SDS011;19724;51.114;13.906;2023-04-15T05:23:28;47.80;;;13.25;;
33367;SDS011;19724;51.114;13.906;2023-04-15T05:25:53;28.65;;;10.73;;
33367;SDS011;19724;51.114;13.906;2023-04-15T05:28:19;28.67;;;11.85;;
33367;SDS011;19724;51.114;13.906;2023-04-15T05:30:45;31.05;;;12.23;;
33367;SDS011;19724;51.114;13.906;2023-04-15T05:33:10;19.85;;;9.02;;
33367;SDS011;19724;51.114;13.906;2023-04-15T05:35:36;24.05;;;10.18;;
33367;SDS011;19724;51.114;13.906;2023-04-15T05:38:01;22.95;;;9.10;;
33367;SDS011;19724;51.114;13.906;2023-04-15T05:40:27;23.00;;;8.85;;
33367;SDS011;19724;51.114;13.906;2023-04-15T05:42:54;31.33;;;9.60;;
33367;SDS011;19724;51.114;13.906;2023-04-15T05:45:19;21.08;;;8.50;;
33367;SDS011;19724;51.114;13.906;2023-04-15T05:47:45;15.48;;;7.43;;
33367;SDS011;19724;51.114;13.906;2023-04-15T05:50:10;19.27;;;7.05;;
33367;SDS011;19724;51.114;13.906;2023-04-15T05:52:36;12.90;;;6.68;;
33367;SDS011;19724;51.114;13.906;2023-04-15T05:55:01;14.70;;;6.63;;
33367;SDS011;19724;51.114;13.906;2023-04-15T05:57:27;12.77;;;5.75;;
33367;SDS011;19724;51.114;13.906;2023-04-15T05:59:52;12.65;;;5.15;;
33367;SDS011;19724;51.114;13.906;2023-04-15T06:02:19;13.32;;;6.07;;
33367;SDS011;19724;51.114;13.906;2023-04-15T06:04:45;21.38;;;7.72;;
33367;SDS011;19724;51.114;13.906;2023-04-15T06:07:10;15.55;;;7.10;;
33367;SDS011;19724;51.114;13.906;2023-04-15T06:09:35;19.90;;;8.93;;
33367;SDS011;19724;51.114;13.906;2023-04-15T06:12:01;15.32;;;7.18;;
33367;SDS011;19724;51.114;13.906;2023-04-15T06:14:27;15.70;;;6.95;;
33367;SDS011;19724;51.114;13.906;2023-04-15T06:16:52;23.00;;;7.63;;
33367;SDS011;19724;51.114;13.906;2023-04-15T06:19:18;18.70;;;7.57;;
33367;SDS011;19724;51.114;13.906;2023-04-15T06:21:44;17.05;;;7.15;;
33367;SDS011;19724;51.114;13.906;2023-04-15T06:24:10;14.88;;;7.28;;
33367;SDS011;19724;51.114;13.906;2023-04-15T06:26:36;15.98;;;6.90;;
33367;SDS011;19724;51.114;13.906;2023-04-15T06:29:04;17.65;;;7.32;;
33367;SDS011;19724;51.114;13.906;2023-04-15T06:31:30;22.23;;;8.00;;
33367;SDS011;19724;51.114;13.906;2023-04-15T06:33:55;22.10;;;8.10;;
33367;SDS011;19724;51.114;13.906;2023-04-15T06:36:21;14.43;;;6.65;;
33367;SDS011;19724;51.114;13.906;2023-04-15T06:38:47;13.55;;;7.00;;
33367;SDS011;19724;51.114;13.906;2023-04-15T06:41:12;12.20;;;6.50;;
33367;SDS011;19724;51.114;13.906;2023-04-15T06:43:38;16.25;;;6.50;;
33367;SDS011;19724;51.114;13.906;2023-04-15T06:46:03;15.63;;;7.38;;
33367;SDS011;19724;51.114;13.906;2023-04-15T06:48:29;12.32;;;6.05;;
33367;SDS011;19724;51.114;13.906;2023-04-15T06:50:54;17.00;;;7.15;;
33367;SDS011;19724;51.114;13.906;2023-04-15T06:53:20;11.55;;;6.32;;
33367;SDS011;19724;51.114;13.906;2023-04-15T06:55:46;11.82;;;6.32;;
33367;SDS011;19724;51.114;13.906;2023-04-15T06:58:12;12.27;;;6.53;;
33367;SDS011;19724;51.114;13.906;2023-04-15T07:00:37;12.38;;;7.25;;
33367;SDS011;19724;51.114;13.906;2023-04-15T07:03:03;10.95;;;6.75;;
33367;SDS011;19724;51.114;13.906;2023-04-15T07:05:29;10.57;;;6.47;;
33367;SDS011;19724;51.114;13.906;2023-04-15T07:07:56;13.55;;;7.53;;
33367;SDS011;19724;51.114;13.906;2023-04-15T07:10:21;8.88;;;6.35;;
33367;SDS011;19724;51.114;13.906;2023-04-15T07:12:48;9.50;;;6.72;;
33367;SDS011;19724;51.114;13.906;2023-04-15T07:15:14;8.57;;;6.22;;
33367;SDS011;19724;51.114;13.906;2023-04-15T07:17:40;11.05;;;6.78;;
33367;SDS011;19724;51.114;13.906;2023-04-15T07:20:07;9.02;;;6.05;;
33367;SDS011;19724;51.114;13.906;2023-04-15T07:22:33;10.05;;;6.10;;
33367;SDS011;19724;51.114;13.906;2023-04-15T07:24:58;10.27;;;6.10;;
33367;SDS011;19724;51.114;13.906;2023-04-15T07:27:24;6.00;;;3.80;;
33367;SDS011;19724;51.114;13.906;2023-04-15T07:29:50;6.65;;;4.72;;
33367;SDS011;19724;51.114;13.906;2023-04-15T07:32:16;10.25;;;5.88;;
33367;SDS011;19724;51.114;13.906;2023-04-15T07:34:41;10.93;;;6.40;;
33367;SDS011;19724;51.114;13.906;2023-04-15T07:37:08;9.38;;;5.63;;
33367;SDS011;19724;51.114;13.906;2023-04-15T07:39:33;8.13;;;5.05;;
33367;SDS011;19724;51.114;13.906;2023-04-15T07:41:59;8.68;;;5.28;;
33367;SDS011;19724;51.114;13.906;2023-04-15T07:44:25;8.85;;;5.15;;
33367;SDS011;19724;51.114;13.906;2023-04-15T07:46:51;6.53;;;4.25;;
33367;SDS011;19724;51.114;13.906;2023-04-15T07:49:17;6.78;;;4.20;;
33367;SDS011;19724;51.114;13.906;2023-04-15T07:51:43;7.35;;;3.80;;
33367;SDS011;19724;51.114;13.906;2023-04-15T07:54:10;6.40;;;4.22;;
33367;SDS011;19724;51.114;13.906;2023-04-15T07:56:36;7.47;;;4.80;;
33367;SDS011;19724;51.114;13.906;2023-04-15T07:59:01;6.70;;;3.50;;
33367;SDS011;19724;51.114;13.906;2023-04-15T08:01:28;7.55;;;3.67;;
33367;SDS011;19724;51.114;13.906;2023-04-15T08:03:54;7.82;;;4.78;;
33367;SDS011;19724;51.114;13.906;2023-04-15T08:06:20;7.65;;;4.53;;
33367;SDS011;19724;51.114;13.906;2023-04-15T08:08:46;6.85;;;4.55;;
33367;SDS011;19724;51.114;13.906;2023-04-15T08:11:12;7.90;;;4.25;;
33367;SDS011;19724;51.114;13.906;2023-04-15T08:13:37;7.15;;;4.25;;
33367;SDS011;19724;51.114;13.906;2023-04-15T08:16:13;5.82;;;3.08;;
33367;SDS011;19724;51.114;13.906;2023-04-15T08:18:42;4.40;;;2.70;;
33367;SDS011;19724;51.114;13.906;2023-04-15T08:21:08;5.43;;;3.17;;
33367;SDS011;19724;51.114;13.906;2023-04-15T08:23:34;14.52;;;4.20;;
33367;SDS011;19724;51.114;13.906;2023-04-15T08:25:59;9.43;;;3.85;;
33367;SDS011;19724;51.114;13.906;2023-04-15T08:28:25;5.30;;;3.42;;
33367;SDS011;19724;51.114;13.906;2023-04-15T08:30:54;7.88;;;4.30;;
33367;SDS011;19724;51.114;13.906;2023-04-15T08:33:19;7.18;;;4.43;;
33367;SDS011;19724;51.114;13.906;2023-04-15T08:35:45;6.75;;;3.60;;
33367;SDS011;19724;51.114;13.906;2023-04-15T08:38:11;7.38;;;4.30;;
33367;SDS011;19724;51.114;13.906;2023-04-15T08:40:43;13.32;;;9.65;;
33367;SDS011;19724;51.114;13.906;2023-04-15T08:43:11;17.25;;;12.57;;
33367;SDS011;19724;51.114;13.906;2023-04-15T08:45:40;23.33;;;16.27;;
33367;SDS011;19724;51.114;13.906;2023-04-15T08:48:05;21.77;;;16.65;;
33367;SDS011;19724;51.114;13.906;2023-04-15T08:50:33;24.50;;;17.50;;
33367;SDS011;19724;51.114;13.906;2023-04-15T08:52:59;22.23;;;16.90;;
33367;SDS011;19724;51.114;13.906;2023-04-15T08:55:29;22.80;;;17.50;;
33367;SDS011;19724;51.114;13.906;2023-04-15T08:58:00;26.15;;;18.63;;
33367;SDS011;19724;51.114;13.906;2023-04-15T09:00:27;24.65;;;19.52;;
33367;SDS011;19724;51.114;13.906;2023-04-15T09:02:53;24.15;;;18.35;;
33367;SDS011;19724;51.114;13.906;2023-04-15T09:05:20;24.80;;;19.20;;
33367;SDS011;19724;51.114;13.906;2023-04-15T09:07:46;25.83;;;19.13;;
33367;SDS011;19724;51.114;13.906;2023-04-15T09:10:12;24.20;;;20.40;;
33367;SDS011;19724;51.114;13.906;2023-04-15T09:12:38;27.00;;;20.40;;
33367;SDS011;19724;51.114;13.906;2023-04-15T09:15:03;27.27;;;20.52;;
33367;SDS011;19724;51.114;13.906;2023-04-15T09:17:29;22.08;;;18.75;;
33367;SDS011;19724;51.114;13.906;2023-04-15T09:20:10;23.20;;;17.63;;
33367;SDS011;19724;51.114;13.906;2023-04-15T09:22:38;26.13;;;19.35;;
33367;SDS011;19724;51.114;13.906;2023-04-15T09:27:49;27.60;;;22.15;;
33367;SDS011;19724;51.114;13.906;2023-04-15T09:30:15;22.77;;;19.02;;
33367;SDS011;19724;51.114;13.906;2023-04-15T09:32:51;22.10;;;18.48;;
33367;SDS011;19724;51.114;13.906;2023-04-15T09:35:19;29.25;;;24.20;;
33367;SDS011;19724;51.114;13.906;2023-04-15T09:37:45;18.88;;;16.25;;
33367;SDS011;19724;51.114;13.906;2023-04-15T09:40:11;17.40;;;15.27;;
33367;SDS011;19724;51.114;13.906;2023-04-15T09:42:40;19.30;;;15.40;;
33367;SDS011;19724;51.114;13.906;2023-04-15T09:45:19;19.35;;;15.40;;
33367;SDS011;19724;51.114;13.906;2023-04-15T09:47:45;16.92;;;13.75;;
33367;SDS011;19724;51.114;13.906;2023-04-15T09:50:10;14.82;;;12.82;;
33367;SDS011;19724;51.114;13.906;2023-04-15T09:52:40;16.08;;;13.60;;
33367;SDS011;19724;51.114;13.906;2023-04-15T09:55:09;15.20;;;13.52;;
33367;SDS011;19724;51.114;13.906;2023-04-15T09:57:36;16.17;;;13.50;;
33367;SDS011;19724;51.114;13.906;2023-04-15T10:00:02;15.93;;;14.10;;
33367;SDS011;19724;51.114;13.906;2023-04-15T10:02:29;13.23;;;11.48;;
33367;SDS011;19724;51.114;13.906;2023-04-15T10:04:55;13.05;;;11.10;;
33367;SDS011;19724;51.114;13.906;2023-04-15T10:07:22;11.50;;;10.35;;
33367;SDS011;19724;51.114;13.906;2023-04-15T10:09:48;11.13;;;8.88;;
33367;SDS011;19724;51.114;13.906;2023-04-15T10:12:15;10.43;;;8.25;;
33367;SDS011;19724;51.114;13.906;2023-04-15T10:14:41;9.32;;;8.35;;
33367;SDS011;19724;51.114;13.906;2023-04-15T10:17:08;9.13;;;8.05;;
33367;SDS011;19724;51.114;13.906;2023-04-15T10:19:36;8.65;;;7.68;;
33367;SDS011;19724;51.114;13.906;2023-04-15T10:22:02;9.93;;;8.48;;
33367;SDS011;19724;51.114;13.906;2023-04-15T10:24:29;12.05;;;8.82;;
33367;SDS011;19724;51.114;13.906;2023-04-15T10:26:56;10.30;;;8.98;;
33367;SDS011;19724;51.114;13.906;2023-04-15T10:29:26;9.43;;;8.35;;
33367;SDS011;19724;51.114;13.906;2023-04-15T10:31:53;9.45;;;8.45;;
33367;SDS011;19724;51.114;13.906;2023-04-15T10:34:20;10.75;;;8.32;;
33367;SDS011;19724;51.114;13.906;2023-04-15T10:36:47;9.10;;;8.05;;
33367;SDS011;19724;51.114;13.906;2023-04-15T10:42:06;8.25;;;7.40;;
33367;SDS011;19724;51.114;13.906;2023-04-15T10:44:34;8.48;;;6.40;;
33367;SDS011;19724;51.114;13.906;2023-04-15T10:47:03;8.30;;;7.40;;
33367;SDS011;19724;51.114;13.906;2023-04-15T10:49:34;14.43;;;10.27;;
33367;SDS011;19724;51.114;13.906;2023-04-15T10:52:11;24.80;;;15.25;;
33367;SDS011;19724;51.114;13.906;2023-04-15T10:54:38;42.40;;;24.20;;
33367;SDS011;19724;51.114;13.906;2023-04-15T10:59:30;34.38;;;20.95;;
33367;SDS011;19724;51.114;13.906;2023-04-15T11:01:59;19.90;;;13.05;;
33367;SDS011;19724;51.114;13.906;2023-04-15T11:07:32;7.63;;;6.30;;
33367;SDS011;19724;51.114;13.906;2023-04-15T11:10:01;9.68;;;7.88;;
33367;SDS011;19724;51.114;13.906;2023-04-15T11:12:34;13.98;;;10.35;;
33367;SDS011;19724;51.114;13.906;2023-04-15T11:15:23;8.88;;;6.95;;
33367;SDS011;19724;51.114;13.906;2023-04-15T11:18:09;5.88;;;4.53;;
33367;SDS011;19724;51.114;13.906;2023-04-15T11:20:36;8.05;;;6.40;;
33367;SDS011;19724;51.114;13.906;2023-04-15T11:23:03;7.28;;;4.93;;
33367;SDS011;19724;51.114;13.906;2023-04-15T11:25:29;5.68;;;4.85;;
33367;SDS011;19724;51.114;13.906;2023-04-15T11:27:57;5.85;;;4.07;;
33367;SDS011;19724;51.114;13.906;2023-04-15T11:30:24;5.53;;;4.38;;
33367;SDS011;19724;51.114;13.906;2023-04-15T11:32:54;5.63;;;3.28;;
33367;SDS011;19724;51.114;13.906;2023-04-15T11:35:22;5.72;;;2.90;;
33367;SDS011;19724;51.114;13.906;2023-04-15T11:37:48;4.47;;;3.30;;
33367;SDS011;19724;51.114;13.906;2023-04-15T11:40:14;4.05;;;2.65;;
33367;SDS011;19724;51.114;13.906;2023-04-15T11:42:42;5.03;;;3.03;;
33367;SDS011;19724;51.114;13.906;2023-04-15T11:45:12;4.40;;;3.00;;
33367;SDS011;19724;51.114;13.906;2023-04-15T11:47:39;3.45;;;2.83;;
33367;SDS011;19724;51.114;13.906;2023-04-15T11:50:18;3.20;;;2.50;;
33367;SDS011;19724;51.114;13.906;2023-04-15T11:52:52;5.18;;;3.30;;
33367;SDS011;19724;51.114;13.906;2023-04-15T11:55:18;4.78;;;3.38;;
33367;SDS011;19724;51.114;13.906;2023-04-15T11:57:43;4.22;;;2.97;;
33367;SDS011;19724;51.114;13.906;2023-04-15T12:00:09;3.92;;;2.65;;
33367;SDS011;19724;51.114;13.906;2023-04-15T12:02:38;4.30;;;2.03;;
33367;SDS011;19724;51.114;13.906;2023-04-15T12:05:04;2.75;;;1.92;;
33367;SDS011;19724;51.114;13.906;2023-04-15T12:07:30;4.00;;;2.33;;
33367;SDS011;19724;51.114;13.906;2023-04-15T12:09:56;2.90;;;2.00;;
33367;SDS011;19724;51.114;13.906;2023-04-15T12:12:26;2.42;;;1.50;;
33367;SDS011;19724;51.114;13.906;2023-04-15T12:14:52;3.30;;;2.20;;
33367;SDS011;19724;51.114;13.906;2023-04-15T12:17:20;4.05;;;1.80;;
33367;SDS011;19724;51.114;13.906;2023-04-15T12:19:48;2.60;;;1.80;;
33367;SDS011;19724;51.114;13.906;2023-04-15T12:22:14;2.47;;;1.38;;
33367;SDS011;19724;51.114;13.906;2023-04-15T12:24:41;2.58;;;1.42;;
33367;SDS011;19724;51.114;13.906;2023-04-15T12:27:11;2.58;;;1.50;;
33367;SDS011;19724;51.114;13.906;2023-04-15T12:29:38;3.22;;;1.50;;
33367;SDS011;19724;51.114;13.906;2023-04-15T12:37:06;3.03;;;1.80;;
33367;SDS011;19724;51.114;13.906;2023-04-15T12:39:39;2.83;;;1.73;;
33367;SDS011;19724;51.114;13.906;2023-04-15T12:42:06;2.15;;;1.20;;
33367;SDS011;19724;51.114;13.906;2023-04-15T12:44:33;2.45;;;1.42;;
33367;SDS011;19724;51.114;13.906;2023-04-15T12:46:59;4.28;;;2.20;;
33367;SDS011;19724;51.114;13.906;2023-04-15T12:49:25;3.45;;;1.98;;
33367;SDS011;19724;51.114;13.906;2023-04-15T12:51:51;4.15;;;1.40;;
33367;SDS011;19724;51.114;13.906;2023-04-15T12:54:19;3.80;;;1.80;;
33367;SDS011;19724;51.114;13.906;2023-04-15T12:56:45;2.63;;;1.35;;
33367;SDS011;19724;51.114;13.906;2023-04-15T12:59:12;3.00;;;2.03;;
33367;SDS011;19724;51.114;13.906;2023-04-15T13:01:39;3.22;;;1.52;;
33367;SDS011;19724;51.114;13.906;2023-04-15T13:04:06;3.20;;;1.70;;
33367;SDS011;19724;51.114;13.906;2023-04-15T13:06:32;3.22;;;1.63;;
33367;SDS011;19724;51.114;13.906;2023-04-15T13:08:58;2.50;;;1.40;;
33367;SDS011;19724;51.114;13.906;2023-04-15T13:11:25;2.65;;;1.50;;
33367;SDS011;19724;51.114;13.906;2023-04-15T13:13:51;2.80;;;1.30;;
33367;SDS011;19724;51.114;13.906;2023-04-15T13:16:17;1.70;;;1.08;;
33367;SDS011;19724;51.114;13.906;2023-04-15T13:18:43;3.33;;;1.40;;
33367;SDS011;19724;51.114;13.906;2023-04-15T13:21:09;5.93;;;3.50;;
33367;SDS011;19724;51.114;13.906;2023-04-15T13:23:36;9.75;;;6.07;;
33367;SDS011;19724;51.114;13.906;2023-04-15T13:26:01;3.92;;;2.28;;
33367;SDS011;19724;51.114;13.906;2023-04-15T13:28:27;2.45;;;1.35;;
33367;SDS011;19724;51.114;13.906;2023-04-15T13:30:52;2.75;;;1.63;;
33367;SDS011;19724;51.114;13.906;2023-04-15T13:33:18;7.57;;;6.82;;
33367;SDS011;19724;51.114;13.906;2023-04-15T13:35:43;2.28;;;1.67;;
33367;SDS011;19724;51.114;13.906;2023-04-15T13:38:09;2.50;;;1.23;;
33367;SDS011;19724;51.114;13.906;2023-04-15T13:40:34;3.78;;;2.58;;
33367;SDS011;19724;51.114;13.906;2023-04-15T13:43:00;4.55;;;3.25;;
33367;SDS011;19724;51.114;13.906;2023-04-15T13:45:26;3.65;;;2.35;;
33367;SDS011;19724;51.114;13.906;2023-04-15T13:47:51;2.50;;;1.73;;
33367;SDS011;19724;51.114;13.906;2023-04-15T13:50:17;2.55;;;1.50;;
33367;SDS011;19724;51.114;13.906;2023-04-15T13:52:43;3.08;;;1.73;;
33367;SDS011;19724;51.114;13.906;2023-04-15T13:55:08;1.90;;;1.20;;
33367;SDS011;19724;51.114;13.906;2023-04-15T13:57:34;2.55;;;1.30;;
33367;SDS011;19724;51.114;13.906;2023-04-15T14:00:09;1.83;;;1.10;;
33367;SDS011;19724;51.114;13.906;2023-04-15T14:02:35;1.85;;;1.30;;
33367;SDS011;19724;51.114;13.906;2023-04-15T14:05:01;1.52;;;1.00;;
33367;SDS011;19724;51.114;13.906;2023-04-15T14:07:28;1.45;;;1.10;;
33367;SDS011;19724;51.114;13.906;2023-04-15T14:09:54;3.20;;;1.00;;
33367;SDS011;19724;51.114;13.906;2023-04-15T14:12:20;3.15;;;1.67;;
33367;SDS011;19724;51.114;13.906;2023-04-15T14:14:46;3.35;;;2.00;;
33367;SDS011;19724;51.114;13.906;2023-04-15T14:17:11;2.03;;;1.48;;
33367;SDS011;19724;51.114;13.906;2023-04-15T14:19:36;2.95;;;1.67;;
33367;SDS011;19724;51.114;13.906;2023-04-15T14:22:02;2.60;;;1.60;;
33367;SDS011;19724;51.114;13.906;2023-04-15T14:24:27;2.80;;;1.70;;
33367;SDS011;19724;51.114;13.906;2023-04-15T14:26:53;14.25;;;12.55;;
33367;SDS011;19724;51.114;13.906;2023-04-15T14:29:18;14.60;;;13.13;;
33367;SDS011;19724;51.114;13.906;2023-04-15T14:31:44;6.80;;;5.85;;
33367;SDS011;19724;51.114;13.906;2023-04-15T14:34:10;2.80;;;1.85;;